createdAt,value
2019-04-28T00:00:51.052Z,10.70
2019-04-28T00:01:58.661Z,10.70
2019-04-28T00:03:02.947Z,10.70
2019-04-28T00:04:07.239Z,10.80
2019-04-28T00:05:11.483Z,10.70
2019-04-28T00:06:15.786Z,10.70
2019-04-28T00:07:21.567Z,10.70
2019-04-28T00:08:26.011Z,10.60
2019-04-28T00:09:31.380Z,10.60
2019-04-28T00:10:35.792Z,10.60
2019-04-28T00:11:41.587Z,10.60
2019-04-28T00:12:46.057Z,10.60
2019-04-28T00:13:53.160Z,10.60
2019-04-28T00:14:56.195Z,10.50
2019-04-28T00:16:01.579Z,10.40
2019-04-28T00:17:07.376Z,10.50
2019-04-28T00:18:11.990Z,10.50
2019-04-28T00:19:16.420Z,10.50
2019-04-28T00:20:31.029Z,10.40
2019-04-28T00:22:06.711Z,10.50
2019-04-28T00:23:21.668Z,10.50
2019-04-28T00:24:43.914Z,10.40
2019-04-28T00:25:59.060Z,10.50
2019-04-28T00:27:05.674Z,10.60
2019-04-28T00:28:11.498Z,10.60
2019-04-28T00:29:15.907Z,10.50
2019-04-28T00:30:21.737Z,10.50
2019-04-28T00:31:26.131Z,10.60
2019-04-28T00:32:30.486Z,10.60
2019-04-28T00:33:36.363Z,10.60
2019-04-28T00:34:41.195Z,10.50
2019-04-28T00:35:45.826Z,10.60
2019-04-28T00:36:54.735Z,10.50
2019-04-28T00:37:59.063Z,10.50
2019-04-28T00:39:03.784Z,10.50
2019-04-28T00:40:11.830Z,10.50
2019-04-28T00:41:16.395Z,10.40
2019-04-28T00:42:22.603Z,10.40
2019-04-28T00:43:26.553Z,10.50
2019-04-28T00:44:31.430Z,10.40
2019-04-28T00:45:35.927Z,10.50
2019-04-28T00:46:41.091Z,10.50
2019-04-28T00:47:45.516Z,10.50
2019-04-28T00:48:50.848Z,10.50
2019-04-28T00:49:55.417Z,10.60
2019-04-28T00:51:01.679Z,10.50
2019-04-28T00:52:05.773Z,10.50
2019-04-28T00:53:11.631Z,10.60
2019-04-28T00:54:15.926Z,10.60
2019-04-28T00:55:21.017Z,10.60
2019-04-28T00:56:25.538Z,10.60
2019-04-28T00:57:31.020Z,10.60
2019-04-28T00:58:35.444Z,10.60
2019-04-28T00:59:52.030Z,10.60
2019-04-28T01:00:47.608Z,10.60
2019-04-28T01:01:57.741Z,10.60
2019-04-28T01:03:02.292Z,10.70
2019-04-28T01:04:06.713Z,10.70
2019-04-28T01:05:12.709Z,10.70
2019-04-28T01:06:17.029Z,10.70
2019-04-28T01:07:21.636Z,10.70
2019-04-28T01:08:26.036Z,10.70
2019-04-28T01:09:31.600Z,10.70
2019-04-28T01:10:35.969Z,10.70
2019-04-28T01:11:41.448Z,10.70
2019-04-28T01:12:46.777Z,10.60
2019-04-28T01:13:51.830Z,10.60
2019-04-28T01:14:57.990Z,10.60
2019-04-28T01:16:20.992Z,10.60
2019-04-28T01:17:35.873Z,10.60
2019-04-28T01:18:45.242Z,10.60
2019-04-28T01:19:51.422Z,10.60
2019-04-28T01:20:55.863Z,10.70
2019-04-28T01:22:10.787Z,10.70
2019-04-28T01:23:14.984Z,10.60
2019-04-28T01:24:20.160Z,10.70
2019-04-28T01:25:24.607Z,10.60
2019-04-28T01:26:29.977Z,10.60
2019-04-28T01:27:53.688Z,10.70
2019-04-28T01:28:59.576Z,10.70
2019-04-28T01:30:10.594Z,10.70
2019-04-28T01:31:29.558Z,10.70
2019-04-28T01:32:40.350Z,10.70
2019-04-28T01:34:03.600Z,10.70
2019-04-28T01:35:09.473Z,10.70
2019-04-28T01:36:13.830Z,10.80
2019-04-28T01:37:19.621Z,10.80
2019-04-28T01:38:23.965Z,10.80
2019-04-28T01:39:29.719Z,10.80
2019-04-28T01:40:34.136Z,10.90
2019-04-28T01:41:39.718Z,10.80
2019-04-28T01:42:44.081Z,10.80
2019-04-28T01:43:48.374Z,10.70
2019-04-28T01:44:52.610Z,10.80
2019-04-28T01:45:56.921Z,10.80
2019-04-28T01:47:01.298Z,10.80
2019-04-28T01:48:05.805Z,10.70
2019-04-28T01:49:10.487Z,10.70
2019-04-28T01:50:15.154Z,10.70
2019-04-28T01:51:20.835Z,10.60
2019-04-28T01:52:25.358Z,10.60
2019-04-28T01:53:30.837Z,10.60
2019-04-28T01:54:35.321Z,10.70
2019-04-28T01:55:41.110Z,10.80
2019-04-28T01:56:45.619Z,10.70
2019-04-28T01:57:50.044Z,10.70
2019-04-28T01:58:54.344Z,10.80
2019-04-28T01:59:59.835Z,10.80
2019-04-28T02:01:04.965Z,10.80
2019-04-28T02:02:10.242Z,10.90
2019-04-28T02:03:14.879Z,10.80
2019-04-28T02:04:19.776Z,10.80
2019-04-28T02:05:24.353Z,10.70
2019-04-28T02:06:29.987Z,10.70
2019-04-28T02:07:34.435Z,10.80
2019-04-28T02:08:39.865Z,10.80
2019-04-28T02:09:44.439Z,10.80
2019-04-28T02:10:50.163Z,10.80
2019-04-28T02:11:54.600Z,10.80
2019-04-28T02:12:59.928Z,10.80
2019-04-28T02:14:04.364Z,10.60
2019-04-28T02:15:10.497Z,10.70
2019-04-28T02:16:14.863Z,10.70
2019-04-28T02:17:20.260Z,10.70
2019-04-28T02:18:24.657Z,10.60
2019-04-28T02:19:30.561Z,10.60
2019-04-28T02:20:35.662Z,10.60
2019-04-28T02:21:59.506Z,10.60
2019-04-28T02:23:09.936Z,10.70
2019-04-28T02:24:32.290Z,10.60
2019-04-28T02:25:36.477Z,10.60
2019-04-28T02:26:40.778Z,10.70
2019-04-28T02:27:44.947Z,10.70
2019-04-28T02:28:50.426Z,10.70
2019-04-28T02:29:54.809Z,10.70
2019-04-28T02:31:02.082Z,10.70
2019-04-28T02:32:06.233Z,10.70
2019-04-28T02:33:11.182Z,10.70
2019-04-28T02:34:15.634Z,10.70
2019-04-28T02:35:21.336Z,10.60
2019-04-28T02:36:25.862Z,10.60
2019-04-28T02:37:30.778Z,10.60
2019-04-28T02:38:35.246Z,10.50
2019-04-28T02:39:40.903Z,10.50
2019-04-28T02:40:45.900Z,10.50
2019-04-28T02:41:51.099Z,10.50
2019-04-28T02:42:55.747Z,10.50
2019-04-28T02:44:00.966Z,10.40
2019-04-28T02:45:06.276Z,10.40
2019-04-28T02:46:10.675Z,10.40
2019-04-28T02:47:15.141Z,10.40
2019-04-28T02:48:23.153Z,10.40
2019-04-28T02:49:35.539Z,10.40
2019-04-28T02:50:46.753Z,10.40
2019-04-28T02:51:59.988Z,10.50
2019-04-28T02:53:13.512Z,10.50
2019-04-28T02:54:20.279Z,10.50
2019-04-28T02:55:24.003Z,10.50
2019-04-28T02:56:30.833Z,10.40
2019-04-28T02:57:34.427Z,10.30
2019-04-28T02:58:41.328Z,10.30
2019-04-28T02:59:45.081Z,10.30
2019-04-28T03:01:02.771Z,10.30
2019-04-28T03:01:55.634Z,10.20
2019-04-28T03:03:01.405Z,10.20
2019-04-28T03:04:06.049Z,10.30
2019-04-28T03:05:11.683Z,10.40
2019-04-28T03:06:16.128Z,10.40
2019-04-28T03:07:21.675Z,10.40
2019-04-28T03:08:26.788Z,10.40
2019-04-28T03:09:31.022Z,10.30
2019-04-28T03:10:35.716Z,10.40
2019-04-28T03:11:41.054Z,10.40
2019-04-28T03:12:45.828Z,10.50
2019-04-28T03:13:51.093Z,10.50
2019-04-28T03:14:55.700Z,10.40
2019-04-28T03:16:01.526Z,10.30
2019-04-28T03:17:05.867Z,10.30
2019-04-28T03:18:11.493Z,10.30
2019-04-28T03:19:15.997Z,10.40
2019-04-28T03:20:21.051Z,10.50
2019-04-28T03:21:25.983Z,10.50
2019-04-28T03:22:32.931Z,10.50
2019-04-28T03:23:36.347Z,10.40
2019-04-28T03:24:41.537Z,10.40
2019-04-28T03:26:11.806Z,10.40
2019-04-28T03:27:33.933Z,10.40
2019-04-28T03:28:45.076Z,10.30
2019-04-28T03:30:02.823Z,10.20
2019-04-28T03:31:55.343Z,10.30
2019-04-28T03:32:45.287Z,10.30
2019-04-28T03:33:47.289Z,10.40
2019-04-28T03:34:53.169Z,10.30
2019-04-28T03:35:54.529Z,10.30
2019-04-28T03:37:00.345Z,10.40
2019-04-28T03:38:04.614Z,10.40
2019-04-28T03:39:10.987Z,10.30
2019-04-28T03:40:14.791Z,10.20
2019-04-28T03:41:21.143Z,10.30
2019-04-28T03:42:24.932Z,10.30
2019-04-28T03:43:30.627Z,10.30
2019-04-28T03:44:34.968Z,10.30
2019-04-28T03:45:44.411Z,10.30
2019-04-28T03:46:52.722Z,10.20
2019-04-28T03:47:56.901Z,10.10
2019-04-28T03:49:01.259Z,10.00
2019-04-28T03:50:06.315Z,10.10
2019-04-28T03:51:13.285Z,10.00
2019-04-28T03:52:16.554Z,10.00
2019-04-28T03:53:20.840Z,10.00
2019-04-28T03:54:25.619Z,10.00
2019-04-28T03:55:34.517Z,10.00
2019-04-28T03:56:35.979Z,10.00
2019-04-28T03:57:41.207Z,10.00
2019-04-28T03:58:45.773Z,10.10
2019-04-28T03:59:51.143Z,10.00
2019-04-28T04:00:55.866Z,10.00
2019-04-28T04:02:03.212Z,10.10
2019-04-28T04:03:06.338Z,10.10
2019-04-28T04:04:11.348Z,10.10
2019-04-28T04:05:15.852Z,10.10
2019-04-28T04:06:22.346Z,10.10
2019-04-28T04:07:26.143Z,10.10
2019-04-28T04:08:31.137Z,10.00
2019-04-28T04:09:43.692Z,10.00
2019-04-28T04:10:56.563Z,10.00
2019-04-28T04:12:21.137Z,9.90
2019-04-28T04:13:51.392Z,9.90
2019-04-28T04:15:13.981Z,10.00
2019-04-28T04:16:35.898Z,10.00
2019-04-28T04:17:44.321Z,10.10
2019-04-28T04:18:53.178Z,10.20
2019-04-28T04:19:56.125Z,10.20
2019-04-28T04:21:00.942Z,10.20
2019-04-28T04:22:05.510Z,10.30
2019-04-28T04:23:11.301Z,10.10
2019-04-28T04:24:15.881Z,10.10
2019-04-28T04:25:20.385Z,10.00
2019-04-28T04:26:24.663Z,10.00
2019-04-28T04:27:30.832Z,10.00
2019-04-28T04:28:34.798Z,10.10
2019-04-28T04:29:43.113Z,10.00
2019-04-28T04:30:45.096Z,10.00
2019-04-28T04:31:51.175Z,10.10
2019-04-28T04:32:55.464Z,10.10
2019-04-28T04:34:02.611Z,10.10
2019-04-28T04:35:06.109Z,10.10
2019-04-28T04:36:11.677Z,10.20
2019-04-28T04:37:16.234Z,10.20
2019-04-28T04:38:21.758Z,10.20
2019-04-28T04:39:26.313Z,10.10
2019-04-28T04:40:31.653Z,10.10
2019-04-28T04:41:36.810Z,10.00
2019-04-28T04:42:40.960Z,10.00
2019-04-28T04:43:45.224Z,10.00
2019-04-28T04:44:50.136Z,9.90
2019-04-28T04:46:14.347Z,10.00
2019-04-28T04:47:21.096Z,10.00
2019-04-28T04:48:24.676Z,10.00
2019-04-28T04:49:31.634Z,9.90
2019-04-28T04:50:35.000Z,10.00
2019-04-28T04:51:40.703Z,9.90
2019-04-28T04:52:45.238Z,9.80
2019-04-28T04:53:50.994Z,9.80
2019-04-28T04:54:55.464Z,9.80
2019-04-28T04:56:00.326Z,9.80
2019-04-28T04:57:04.780Z,9.80
2019-04-28T04:58:10.773Z,9.80
2019-04-28T04:59:15.291Z,9.80
2019-04-28T05:00:31.108Z,9.90
2019-04-28T05:01:59.974Z,9.90
2019-04-28T05:03:10.631Z,9.90
2019-04-28T05:04:23.746Z,10.00
2019-04-28T05:05:40.357Z,10.00
2019-04-28T05:06:45.101Z,10.00
2019-04-28T05:07:50.753Z,10.00
2019-04-28T05:08:55.271Z,10.00
2019-04-28T05:09:59.633Z,10.00
2019-04-28T05:11:04.019Z,10.10
2019-04-28T05:12:09.669Z,10.10
2019-04-28T05:13:13.961Z,10.10
2019-04-28T05:14:19.889Z,10.10
2019-04-28T05:15:24.337Z,10.00
2019-04-28T05:16:29.808Z,10.00
2019-04-28T05:17:34.487Z,10.00
2019-04-28T05:18:39.377Z,10.00
2019-04-28T05:19:44.789Z,10.00
2019-04-28T05:20:50.423Z,10.00
2019-04-28T05:21:54.983Z,10.00
2019-04-28T05:23:05.962Z,10.00
2019-04-28T05:24:35.256Z,10.00
2019-04-28T05:25:43.314Z,9.90
2019-04-28T05:26:51.429Z,9.90
2019-04-28T05:27:59.375Z,9.90
2019-04-28T05:29:01.083Z,9.90
2019-04-28T05:30:06.213Z,10.00
2019-04-28T05:31:13.546Z,10.00
2019-04-28T05:32:16.523Z,10.00
2019-04-28T05:33:30.413Z,10.00
2019-04-28T05:34:32.839Z,9.90
2019-04-28T05:35:37.141Z,10.00
2019-04-28T05:36:44.578Z,9.90
2019-04-28T05:37:49.425Z,10.00
2019-04-28T05:38:54.093Z,10.00
2019-04-28T05:40:00.648Z,10.00
2019-04-28T05:41:04.219Z,10.00
2019-04-28T05:42:11.087Z,9.90
2019-04-28T05:43:14.595Z,9.90
2019-04-28T05:44:20.166Z,10.00
2019-04-28T05:45:24.747Z,10.00
2019-04-28T05:46:30.000Z,9.90
2019-04-28T05:47:34.223Z,10.00
2019-04-28T05:48:51.275Z,10.00
2019-04-28T05:50:14.571Z,9.90
2019-04-28T05:51:20.351Z,10.00
2019-04-28T05:52:50.187Z,10.00
2019-04-28T05:54:25.647Z,10.00
2019-04-28T05:55:39.363Z,10.10
2019-04-28T05:57:10.700Z,10.00
2019-04-28T05:58:20.119Z,10.00
2019-04-28T05:59:42.054Z,10.10
2019-04-28T06:00:53.525Z,9.90
2019-04-28T06:02:14.588Z,9.90
2019-04-28T06:03:19.948Z,10.00
2019-04-28T06:04:26.758Z,10.00
2019-04-28T06:05:31.937Z,10.10
2019-04-28T06:06:40.532Z,10.10
2019-04-28T06:08:07.787Z,10.10
2019-04-28T06:09:30.964Z,10.20
2019-04-28T06:10:35.555Z,10.20
2019-04-28T06:11:40.985Z,10.10
2019-04-28T06:12:45.162Z,10.20
2019-04-28T06:13:50.085Z,10.20
2019-04-28T06:14:55.191Z,10.20
2019-04-28T06:15:59.922Z,10.20
2019-04-28T06:17:04.535Z,10.30
2019-04-28T06:18:10.489Z,10.20
2019-04-28T06:19:14.857Z,10.20
2019-04-28T06:20:20.173Z,10.20
2019-04-28T06:21:24.565Z,10.30
2019-04-28T06:22:28.760Z,10.30
2019-04-28T06:23:33.203Z,10.30
2019-04-28T06:24:37.440Z,10.30
2019-04-28T06:25:41.798Z,10.40
2019-04-28T06:26:46.124Z,10.50
2019-04-28T06:27:50.397Z,10.50
2019-04-28T06:28:54.657Z,10.50
2019-04-28T06:29:58.958Z,10.50
2019-04-28T06:31:03.255Z,10.40
2019-04-28T06:32:07.580Z,10.50
2019-04-28T06:33:12.131Z,10.50
2019-04-28T06:34:16.349Z,10.50
2019-04-28T06:35:20.661Z,10.50
2019-04-28T06:36:25.163Z,10.50
2019-04-28T06:37:29.519Z,10.40
2019-04-28T06:38:33.824Z,10.30
2019-04-28T06:39:38.101Z,10.30
2019-04-28T06:40:42.319Z,10.40
2019-04-28T06:41:46.611Z,10.40
2019-04-28T06:42:50.970Z,10.40
2019-04-28T06:43:55.137Z,10.40
2019-04-28T06:44:59.311Z,10.50
2019-04-28T06:46:03.791Z,10.50
2019-04-28T06:47:08.123Z,10.50
2019-04-28T06:48:12.370Z,10.50
2019-04-28T06:49:16.731Z,10.40
2019-04-28T06:50:20.897Z,10.40
2019-04-28T06:51:25.202Z,10.40
2019-04-28T06:52:29.547Z,10.40
2019-04-28T06:53:33.900Z,10.40
2019-04-28T06:54:38.243Z,10.30
2019-04-28T06:55:42.530Z,10.40
2019-04-28T06:56:46.715Z,10.50
2019-04-28T06:57:51.049Z,10.50
2019-04-28T06:58:59.067Z,10.50
2019-04-28T07:00:01.512Z,10.40
2019-04-28T07:01:05.758Z,10.40
2019-04-28T07:02:10.151Z,10.40
2019-04-28T07:03:23.088Z,10.40
2019-04-28T07:04:20.509Z,10.60
2019-04-28T07:05:24.668Z,10.60
2019-04-28T07:06:29.049Z,10.70
2019-04-28T07:07:33.397Z,10.70
2019-04-28T07:08:37.719Z,10.60
2019-04-28T07:09:42.035Z,10.70
2019-04-28T07:10:46.259Z,10.70
2019-04-28T07:11:50.594Z,10.70
2019-04-28T07:12:54.770Z,10.70
2019-04-28T07:13:58.983Z,10.70
2019-04-28T07:15:03.298Z,10.70
2019-04-28T07:16:07.647Z,10.70
2019-04-28T07:17:11.873Z,10.70
2019-04-28T07:18:16.172Z,10.80
2019-04-28T07:19:20.823Z,10.80
2019-04-28T07:20:46.757Z,10.80
2019-04-28T07:22:09.976Z,10.70
2019-04-28T07:23:14.314Z,10.60
2019-04-28T07:24:18.635Z,10.70
2019-04-28T07:25:22.875Z,10.70
2019-04-28T07:26:27.327Z,10.80
2019-04-28T07:27:31.682Z,10.80
2019-04-28T07:28:36.016Z,10.80
2019-04-28T07:29:40.215Z,10.80
2019-04-28T07:30:44.501Z,10.80
2019-04-28T07:31:48.753Z,10.80
2019-04-28T07:32:53.208Z,10.80
2019-04-28T07:33:57.431Z,10.80
2019-04-28T07:35:01.956Z,10.80
2019-04-28T07:36:06.237Z,10.80
2019-04-28T07:37:10.542Z,10.70
2019-04-28T07:38:14.856Z,10.60
2019-04-28T07:39:19.078Z,10.70
2019-04-28T07:40:23.258Z,10.70
2019-04-28T07:41:27.482Z,10.70
2019-04-28T07:42:31.722Z,10.70
2019-04-28T07:43:35.900Z,10.70
2019-04-28T07:44:40.029Z,10.70
2019-04-28T07:45:44.249Z,10.70
2019-04-28T07:46:48.622Z,10.80
2019-04-28T07:47:52.852Z,10.80
2019-04-28T07:48:57.144Z,10.80
2019-04-28T07:50:01.487Z,10.80
2019-04-28T07:51:05.833Z,10.90
2019-04-28T07:52:29.086Z,10.90
2019-04-28T07:53:39.671Z,11.00
2019-04-28T07:54:43.849Z,11.00
2019-04-28T07:55:48.187Z,10.90
2019-04-28T07:56:52.581Z,10.90
2019-04-28T07:57:56.913Z,10.90
2019-04-28T07:59:01.189Z,10.80
2019-04-28T08:00:06.605Z,10.90
2019-04-28T08:01:11.199Z,10.80
2019-04-28T08:02:15.455Z,10.80
2019-04-28T08:03:19.757Z,10.80
2019-04-28T08:04:24.023Z,10.90
2019-04-28T08:05:28.813Z,10.90
2019-04-28T08:06:33.130Z,10.90
2019-04-28T08:07:37.403Z,10.90
2019-04-28T08:08:41.729Z,10.80
2019-04-28T08:09:45.896Z,10.90
2019-04-28T08:10:50.239Z,11.00
2019-04-28T08:11:54.433Z,11.00
2019-04-28T08:12:58.731Z,10.90
2019-04-28T08:14:03.032Z,11.00
2019-04-28T08:15:07.479Z,11.00
2019-04-28T08:16:11.815Z,10.90
2019-04-28T08:17:15.965Z,10.90
2019-04-28T08:18:20.176Z,11.00
2019-04-28T08:19:24.524Z,11.00
2019-04-28T08:20:28.811Z,11.00
2019-04-28T08:21:33.007Z,11.10
2019-04-28T08:22:37.279Z,11.10
2019-04-28T08:23:47.257Z,11.10
2019-04-28T08:24:47.412Z,11.10
2019-04-28T08:25:51.671Z,11.10
2019-04-28T08:26:55.926Z,11.10
2019-04-28T08:28:00.299Z,11.20
2019-04-28T08:29:04.486Z,11.20
2019-04-28T08:30:09.109Z,11.30
2019-04-28T08:31:14.932Z,11.30
2019-04-28T08:32:56.254Z,11.40
2019-04-28T08:34:03.255Z,11.40
2019-04-28T08:35:07.823Z,11.30
2019-04-28T08:36:12.005Z,11.30
2019-04-28T08:37:16.249Z,11.30
2019-04-28T08:38:20.603Z,11.30
2019-04-28T08:39:26.676Z,11.30
2019-04-28T08:40:30.937Z,11.40
2019-04-28T08:41:35.267Z,11.50
2019-04-28T08:42:39.545Z,11.50
2019-04-28T08:43:43.715Z,11.60
2019-04-28T08:44:47.893Z,11.50
2019-04-28T08:45:52.118Z,11.50
2019-04-28T08:46:56.343Z,11.50
2019-04-28T08:48:00.526Z,11.50
2019-04-28T08:49:04.795Z,11.60
2019-04-28T08:50:09.067Z,11.50
2019-04-28T08:51:13.327Z,11.50
2019-04-28T08:52:17.607Z,11.50
2019-04-28T08:53:21.832Z,11.60
2019-04-28T08:54:26.117Z,11.70
2019-04-28T08:55:30.403Z,11.70
2019-04-28T08:56:34.675Z,11.80
2019-04-28T08:57:38.874Z,11.80
2019-04-28T08:58:43.709Z,11.80
2019-04-28T08:59:48.585Z,11.70
2019-04-28T09:00:56.173Z,11.70
2019-04-28T09:02:00.532Z,11.80
2019-04-28T09:03:04.845Z,11.80
2019-04-28T09:04:15.066Z,11.70
2019-04-28T09:05:15.607Z,11.80
2019-04-28T09:06:19.856Z,11.80
2019-04-28T09:07:24.127Z,11.80
2019-04-28T09:08:28.310Z,11.90
2019-04-28T09:09:34.306Z,12.00
2019-04-28T09:10:38.507Z,12.00
2019-04-28T09:11:42.746Z,12.10
2019-04-28T09:12:47.015Z,12.20
2019-04-28T09:13:51.321Z,12.10
2019-04-28T09:14:55.645Z,12.10
2019-04-28T09:15:59.930Z,12.00
2019-04-28T09:17:04.348Z,11.90
2019-04-28T09:18:08.736Z,11.70
2019-04-28T09:19:13.173Z,11.60
2019-04-28T09:20:17.362Z,11.60
2019-04-28T09:21:21.863Z,11.60
2019-04-28T09:22:26.310Z,11.50
2019-04-28T09:23:30.609Z,11.50
2019-04-28T09:24:34.841Z,11.50
2019-04-28T09:25:39.074Z,11.60
2019-04-28T09:26:43.331Z,11.70
2019-04-28T09:27:47.589Z,11.80
2019-04-28T09:28:51.839Z,11.90
2019-04-28T09:29:56.049Z,12.00
2019-04-28T09:31:00.403Z,12.10
2019-04-28T09:32:04.633Z,12.30
2019-04-28T09:33:08.916Z,12.50
2019-04-28T09:34:13.097Z,12.60
2019-04-28T09:35:19.990Z,12.50
2019-04-28T09:36:24.373Z,12.50
2019-04-28T09:37:28.709Z,12.50
2019-04-28T09:38:32.911Z,12.40
2019-04-28T09:39:47.841Z,12.30
2019-04-28T09:40:52.368Z,12.20
2019-04-28T09:42:21.657Z,12.20
2019-04-28T09:43:30.840Z,12.10
2019-04-28T09:44:35.107Z,12.10
2019-04-28T09:45:58.335Z,12.10
2019-04-28T09:47:02.721Z,12.00
2019-04-28T09:48:07.073Z,12.00
2019-04-28T09:49:11.456Z,11.90
2019-04-28T09:50:15.632Z,11.90
2019-04-28T09:51:19.809Z,11.90
2019-04-28T09:52:24.201Z,11.80
2019-04-28T09:53:28.405Z,11.80
2019-04-28T09:54:32.527Z,11.90
2019-04-28T09:55:36.715Z,11.90
2019-04-28T09:56:41.101Z,12.00
2019-04-28T09:57:45.436Z,12.00
2019-04-28T09:58:49.698Z,12.00
2019-04-28T09:59:53.899Z,12.10
2019-04-28T10:00:58.073Z,12.10
2019-04-28T10:02:02.526Z,12.10
2019-04-28T10:03:06.770Z,12.10
2019-04-28T10:04:11.057Z,12.20
2019-04-28T10:05:15.623Z,12.30
2019-04-28T10:06:19.817Z,12.50
2019-04-28T10:07:24.107Z,12.60
2019-04-28T10:08:28.329Z,12.70
2019-04-28T10:09:32.647Z,12.70
2019-04-28T10:10:37.248Z,12.70
2019-04-28T10:11:41.382Z,12.80
2019-04-28T10:12:45.605Z,12.80
2019-04-28T10:13:49.880Z,12.80
2019-04-28T10:14:54.085Z,12.80
2019-04-28T10:15:58.373Z,12.70
2019-04-28T10:17:02.713Z,12.70
2019-04-28T10:18:06.988Z,12.60
2019-04-28T10:19:11.348Z,12.50
2019-04-28T10:20:17.043Z,12.50
2019-04-28T10:21:21.321Z,12.40
2019-04-28T10:22:25.528Z,12.40
2019-04-28T10:23:30.109Z,12.30
2019-04-28T10:24:34.573Z,12.30
2019-04-28T10:25:38.979Z,12.30
2019-04-28T10:26:43.261Z,12.30
2019-04-28T10:27:47.607Z,12.40
2019-04-28T10:28:51.979Z,12.50
2019-04-28T10:29:56.259Z,12.50
2019-04-28T10:31:00.609Z,12.60
2019-04-28T10:32:05.095Z,12.70
2019-04-28T10:33:09.444Z,12.70
2019-04-28T10:34:13.833Z,12.80
2019-04-28T10:35:18.883Z,12.80
2019-04-28T10:36:23.200Z,12.80
2019-04-28T10:37:27.369Z,12.80
2019-04-28T10:38:31.520Z,12.90
2019-04-28T10:39:45.582Z,12.90
2019-04-28T10:41:08.835Z,13.00
2019-04-28T10:42:13.060Z,13.10
2019-04-28T10:43:17.327Z,13.20
2019-04-28T10:44:22.185Z,13.30
2019-04-28T10:45:28.049Z,13.30
2019-04-28T10:46:32.363Z,13.40
2019-04-28T10:47:36.773Z,13.60
2019-04-28T10:48:41.054Z,13.60
2019-04-28T10:49:45.353Z,13.70
2019-04-28T10:50:49.647Z,13.70
2019-04-28T10:51:59.408Z,13.70
2019-04-28T10:52:59.890Z,13.60
2019-04-28T10:54:04.167Z,13.60
2019-04-28T10:55:08.457Z,13.60
2019-04-28T10:56:12.865Z,13.50
2019-04-28T10:57:17.490Z,13.50
2019-04-28T10:58:21.885Z,13.40
2019-04-28T10:59:26.203Z,13.40
2019-04-28T11:00:32.007Z,13.30
2019-04-28T11:01:36.230Z,13.30
2019-04-28T11:02:42.918Z,13.30
2019-04-28T11:03:48.775Z,13.30
2019-04-28T11:05:08.078Z,13.30
2019-04-28T11:06:05.247Z,13.30
2019-04-28T11:07:10.813Z,13.30
2019-04-28T11:08:33.333Z,13.20
2019-04-28T11:09:42.788Z,13.30
2019-04-28T11:10:47.094Z,13.20
2019-04-28T11:11:51.251Z,13.20
2019-04-28T11:12:55.524Z,13.20
2019-04-28T11:13:59.824Z,13.20
2019-04-28T11:15:06.698Z,13.10
2019-04-28T11:16:12.084Z,13.10
2019-04-28T11:17:16.363Z,13.10
2019-04-28T11:18:20.847Z,13.10
2019-04-28T11:19:25.279Z,13.10
2019-04-28T11:20:29.429Z,13.10
2019-04-28T11:21:33.593Z,13.00
2019-04-28T11:22:37.887Z,13.00
2019-04-28T11:23:42.308Z,13.00
2019-04-28T11:24:46.564Z,13.10
2019-04-28T11:25:50.775Z,13.20
2019-04-28T11:26:55.151Z,13.30
2019-04-28T11:27:59.341Z,13.20
2019-04-28T11:29:03.839Z,13.30
2019-04-28T11:30:09.360Z,13.30
2019-04-28T11:31:13.798Z,13.40
2019-04-28T11:32:18.091Z,13.50
2019-04-28T11:33:50.400Z,13.60
2019-04-28T11:35:03.158Z,13.60
2019-04-28T11:36:07.380Z,13.80
2019-04-28T11:37:11.594Z,14.00
2019-04-28T11:38:15.818Z,14.20
2019-04-28T11:39:25.175Z,14.40
2019-04-28T11:40:29.325Z,14.50
2019-04-28T11:41:33.529Z,14.50
2019-04-28T11:42:37.871Z,14.40
2019-04-28T11:43:42.097Z,14.20
2019-04-28T11:44:46.299Z,14.10
2019-04-28T11:45:50.616Z,14.00
2019-04-28T11:46:55.109Z,13.90
2019-04-28T11:47:59.387Z,13.80
2019-04-28T11:49:03.716Z,13.70
2019-04-28T11:50:08.134Z,13.50
2019-04-28T11:51:12.467Z,13.40
2019-04-28T11:52:16.836Z,13.30
2019-04-28T11:53:21.185Z,13.20
2019-04-28T11:54:25.401Z,13.10
2019-04-28T11:55:29.837Z,13.10
2019-04-28T11:56:41.078Z,13.10
2019-04-28T11:57:40.236Z,13.10
2019-04-28T11:58:44.491Z,13.00
2019-04-28T11:59:48.663Z,13.00
2019-04-28T12:00:53.118Z,13.00
2019-04-28T12:01:57.348Z,13.00
2019-04-28T12:03:01.770Z,13.00
2019-04-28T12:04:07.659Z,13.00
2019-04-28T12:05:11.844Z,13.00
2019-04-28T12:06:16.519Z,13.00
2019-04-28T12:07:20.955Z,12.90
2019-04-28T12:08:25.316Z,12.90
2019-04-28T12:09:34.607Z,12.80
2019-04-28T12:10:50.363Z,12.80
2019-04-28T12:11:55.244Z,12.80
2019-04-28T12:13:08.708Z,12.80
2019-04-28T12:14:17.413Z,12.80
2019-04-28T12:15:46.947Z,12.80
2019-04-28T12:17:05.611Z,12.80
2019-04-28T12:18:27.693Z,12.80
2019-04-28T12:19:39.732Z,12.80
2019-04-28T12:20:43.953Z,12.80
2019-04-28T12:21:48.205Z,12.80
2019-04-28T12:22:52.393Z,12.80
2019-04-28T12:23:56.732Z,12.80
2019-04-28T12:25:01.019Z,12.70
2019-04-28T12:26:05.296Z,12.70
2019-04-28T12:27:09.538Z,12.70
2019-04-28T12:28:13.713Z,12.80
2019-04-28T12:29:17.973Z,12.70
2019-04-28T12:30:22.290Z,12.70
2019-04-28T12:31:26.486Z,12.70
2019-04-28T12:32:30.789Z,12.60
2019-04-28T12:33:35.095Z,12.60
2019-04-28T12:34:39.434Z,12.70
2019-04-28T12:35:48.042Z,12.70
2019-04-28T12:36:50.075Z,12.60
2019-04-28T12:37:54.377Z,12.70
2019-04-28T12:38:58.567Z,12.70
2019-04-28T12:40:03.049Z,12.70
2019-04-28T12:41:07.304Z,12.70
2019-04-28T12:42:11.622Z,12.70
2019-04-28T12:43:15.889Z,12.70
2019-04-28T12:44:20.250Z,12.70
2019-04-28T12:45:34.808Z,12.70
2019-04-28T12:46:31.185Z,12.70
2019-04-28T12:47:35.524Z,12.80
2019-04-28T12:48:39.865Z,12.80
2019-04-28T12:50:10.110Z,12.80
2019-04-28T12:51:14.385Z,12.80
2019-04-28T12:52:18.673Z,12.80
2019-04-28T12:53:23.495Z,12.80
2019-04-28T12:54:29.976Z,12.80
2019-04-28T12:55:53.691Z,12.80
2019-04-28T12:56:58.077Z,12.80
2019-04-28T12:58:04.161Z,12.80
2019-04-28T12:59:15.207Z,12.80
2019-04-28T13:00:37.973Z,12.80
2019-04-28T13:01:52.621Z,12.80
2019-04-28T13:03:34.235Z,12.90
2019-04-28T13:04:42.056Z,13.00
2019-04-28T13:05:46.698Z,13.20
2019-04-28T13:07:04.327Z,13.40
2019-04-28T13:08:08.723Z,13.60
2019-04-28T13:09:12.943Z,13.80
2019-04-28T13:10:17.221Z,14.00
2019-04-28T13:11:21.579Z,14.10
2019-04-28T13:12:25.880Z,14.10
2019-04-28T13:13:30.056Z,14.10
2019-04-28T13:14:34.364Z,13.90
2019-04-28T13:15:38.605Z,13.80
2019-04-28T13:16:42.853Z,13.80
2019-04-28T13:17:47.183Z,13.80
2019-04-28T13:18:51.369Z,13.90
2019-04-28T13:19:55.545Z,14.00
2019-04-28T13:20:59.911Z,14.00
2019-04-28T13:22:05.653Z,14.10
2019-04-28T13:23:10.484Z,14.30
2019-04-28T13:24:14.810Z,14.30
2019-04-28T13:25:19.165Z,14.30
2019-04-28T13:26:23.370Z,14.30
2019-04-28T13:27:27.769Z,14.30
2019-04-28T13:28:32.132Z,14.30
2019-04-28T13:29:36.476Z,14.30
2019-04-28T13:30:40.709Z,14.30
2019-04-28T13:31:45.011Z,14.40
2019-04-28T13:32:49.326Z,14.50
2019-04-28T13:33:56.610Z,14.60
2019-04-28T13:34:59.883Z,14.70
2019-04-28T13:36:14.077Z,14.70
2019-04-28T13:37:10.711Z,14.70
2019-04-28T13:38:14.970Z,14.70
2019-04-28T13:39:38.235Z,14.60
2019-04-28T13:40:42.579Z,14.60
2019-04-28T13:41:46.839Z,14.50
2019-04-28T13:42:51.138Z,14.50
2019-04-28T13:43:55.445Z,14.60
2019-04-28T13:45:06.211Z,14.60
2019-04-28T13:46:10.458Z,14.70
2019-04-28T13:47:14.976Z,14.70
2019-04-28T13:48:19.296Z,14.80
2019-04-28T13:49:25.337Z,14.90
2019-04-28T13:50:35.449Z,14.90
2019-04-28T13:51:39.710Z,14.80
2019-04-28T13:52:44.027Z,14.90
2019-04-28T13:53:48.276Z,15.00
2019-04-28T13:54:55.362Z,15.00
2019-04-28T13:56:03.690Z,14.90
2019-04-28T13:57:08.085Z,14.80
2019-04-28T13:58:12.565Z,14.80
2019-04-28T13:59:19.743Z,14.80
2019-04-28T14:00:31.125Z,14.80
2019-04-28T14:02:00.537Z,14.90
2019-04-28T14:03:20.400Z,14.90
2019-04-28T14:04:49.563Z,15.00
2019-04-28T14:05:58.494Z,15.00
2019-04-28T14:07:05.150Z,15.00
2019-04-28T14:08:09.791Z,15.00
2019-04-28T14:09:18.056Z,14.90
2019-04-28T14:10:22.405Z,14.90
2019-04-28T14:11:26.818Z,14.90
2019-04-28T14:12:30.977Z,15.00
2019-04-28T14:13:35.570Z,15.00
2019-04-28T14:14:39.844Z,15.00
2019-04-28T14:15:44.118Z,15.00
2019-04-28T14:16:48.543Z,15.00
2019-04-28T14:17:52.704Z,15.00